sensor_id;sensor_type;location;lat;lon;timestamp;pressure;altitude;pressure_sealevel;temperature;humidity
14295;BME280;7231;59.370;18.016;2023-02-23T00:01:54;101599.63;;;-0.42;72.22
14295;BME280;7231;59.370;18.016;2023-02-23T00:04:23;101502.03;;;-0.89;71.81
14295;BME280;7231;59.370;18.016;2023-02-23T00:06:51;101560.22;;;-0.51;72.11
14295;BME280;7231;59.370;18.016;2023-02-23T00:09:20;101576.69;;;-0.39;72.74
14295;BME280;7231;59.370;18.016;2023-02-23T00:11:51;101582.75;;;-0.38;72.26
14295;BME280;7231;59.370;18.016;2023-02-23T00:14:19;101575.94;;;-0.38;72.43
14295;BME280;7231;59.370;18.016;2023-02-23T00:16:53;101571.81;;;-0.36;72.24
14295;BME280;7231;59.370;18.016;2023-02-23T00:19:23;101570.25;;;-0.34;72.58
14295;BME280;7231;59.370;18.016;2023-02-23T00:21:52;101565.09;;;-0.34;72.70
14295;BME280;7231;59.370;18.016;2023-02-23T00:24:21;101550.53;;;-0.33;72.51
14295;BME280;7231;59.370;18.016;2023-02-23T00:26:52;101556.59;;;-0.32;72.75
14295;BME280;7231;59.370;18.016;2023-02-23T00:29:23;101547.47;;;-0.39;72.85
14295;BME280;7231;59.370;18.016;2023-02-23T00:31:52;101540.09;;;-0.35;73.18
14295;BME280;7231;59.370;18.016;2023-02-23T00:34:21;101552.34;;;-0.32;73.10
14295;BME280;7231;59.370;18.016;2023-02-23T00:36:50;101535.34;;;-0.30;73.30
14295;BME280;7231;59.370;18.016;2023-02-23T00:39:20;101536.22;;;-0.29;73.11
14295;BME280;7231;59.370;18.016;2023-02-23T00:41:52;101533.78;;;-0.28;73.34
14295;BME280;7231;59.370;18.016;2023-02-23T00:44:22;101513.06;;;-0.40;73.49
14295;BME280;7231;59.370;18.016;2023-02-23T00:46:50;101522.94;;;-0.24;73.52
14295;BME280;7231;59.370;18.016;2023-02-23T00:49:20;101521.16;;;-0.25;73.19
14295;BME280;7231;59.370;18.016;2023-02-23T00:51:49;101515.22;;;-0.24;73.23
14295;BME280;7231;59.370;18.016;2023-02-23T00:54:19;101512.63;;;-0.24;73.56
14295;BME280;7231;59.370;18.016;2023-02-23T00:56:47;101512.75;;;-0.22;73.35
14295;BME280;7231;59.370;18.016;2023-02-23T00:59:16;101518.03;;;-0.21;73.40
14295;BME280;7231;59.370;18.016;2023-02-23T01:01:45;101437.38;;;-0.62;73.18
14295;BME280;7231;59.370;18.016;2023-02-23T01:04:13;101440.84;;;-0.61;73.46
14295;BME280;7231;59.370;18.016;2023-02-23T01:06:43;101504.25;;;-0.21;73.33
14295;BME280;7231;59.370;18.016;2023-02-23T01:09:15;101465.53;;;-0.43;73.35
14295;BME280;7231;59.370;18.016;2023-02-23T01:11:47;101495.75;;;-0.20;73.83
14295;BME280;7231;59.370;18.016;2023-02-23T01:14:15;101473.50;;;-0.30;73.99
14295;BME280;7231;59.370;18.016;2023-02-23T01:16:43;101419.47;;;-0.60;73.89
14295;BME280;7231;59.370;18.016;2023-02-23T01:19:11;101483.66;;;-0.21;74.03
14295;BME280;7231;59.370;18.016;2023-02-23T01:21:41;101487.25;;;-0.19;74.26
14295;BME280;7231;59.370;18.016;2023-02-23T01:24:11;101488.25;;;-0.17;73.92
14295;BME280;7231;59.370;18.016;2023-02-23T01:26:42;101434.25;;;-0.48;73.98
14295;BME280;7231;59.370;18.016;2023-02-23T01:29:12;101483.13;;;-0.17;73.96
14295;BME280;7231;59.370;18.016;2023-02-23T01:31:42;101466.50;;;-0.21;74.65
14295;BME280;7231;59.370;18.016;2023-02-23T01:34:12;101470.09;;;-0.19;74.27
14295;BME280;7231;59.370;18.016;2023-02-23T01:36:42;101477.19;;;-0.16;74.51
14295;BME280;7231;59.370;18.016;2023-02-23T01:39:13;101472.81;;;-0.17;74.60
14295;BME280;7231;59.370;18.016;2023-02-23T01:41:41;101454.03;;;-0.26;74.89
14295;BME280;7231;59.370;18.016;2023-02-23T01:47:13;101427.69;;;-0.44;75.21
14295;BME280;7231;59.370;18.016;2023-02-23T01:49:42;101425.09;;;-0.44;75.62
14295;BME280;7231;59.370;18.016;2023-02-23T01:52:12;101300.94;;;-1.14;75.92
14295;BME280;7231;59.370;18.016;2023-02-23T01:54:45;101442.31;;;-0.33;76.04
14295;BME280;7231;59.370;18.016;2023-02-23T01:57:19;101439.22;;;-0.29;76.43
14295;BME280;7231;59.370;18.016;2023-02-23T01:59:50;101444.25;;;-0.30;76.40
14295;BME280;7231;59.370;18.016;2023-02-23T02:02:22;101440.53;;;-0.34;76.86
14295;BME280;7231;59.370;18.016;2023-02-23T02:04:53;101438.47;;;-0.38;77.34
14295;BME280;7231;59.370;18.016;2023-02-23T02:07:24;101388.59;;;-0.71;77.51
14295;BME280;7231;59.370;18.016;2023-02-23T02:09:56;101428.31;;;-0.47;78.01
14295;BME280;7231;59.370;18.016;2023-02-23T02:12:39;101327.53;;;-1.04;78.44
14295;BME280;7231;59.370;18.016;2023-02-23T02:15:10;101408.25;;;-0.51;78.67
14295;BME280;7231;59.370;18.016;2023-02-23T02:17:46;101413.41;;;-0.51;79.30
14295;BME280;7231;59.370;18.016;2023-02-23T02:20:35;101353.22;;;-0.83;79.68
14295;BME280;7231;59.370;18.016;2023-02-23T02:26:31;101402.72;;;-0.55;80.13
14295;BME280;7231;59.370;18.016;2023-02-23T02:29:41;101392.16;;;-0.58;80.55
14295;BME280;7231;59.370;18.016;2023-02-23T02:32:44;101374.81;;;-0.71;80.84
14295;BME280;7231;59.370;18.016;2023-02-23T02:35:41;101387.56;;;-0.62;81.11
14295;BME280;7231;59.370;18.016;2023-02-23T02:38:27;101323.94;;;-1.06;81.18
14295;BME280;7231;59.370;18.016;2023-02-23T02:41:01;101387.44;;;-0.64;81.65
14295;BME280;7231;59.370;18.016;2023-02-23T02:43:37;101382.41;;;-0.62;82.00
14295;BME280;7231;59.370;18.016;2023-02-23T02:46:12;101380.72;;;-0.62;82.43
14295;BME280;7231;59.370;18.016;2023-02-23T02:48:47;101338.94;;;-0.80;82.71
14295;BME280;7231;59.370;18.016;2023-02-23T02:51:22;101367.84;;;-0.62;83.07
14295;BME280;7231;59.370;18.016;2023-02-23T02:53:58;101358.31;;;-0.63;83.64
14295;BME280;7231;59.370;18.016;2023-02-23T02:56:33;101283.78;;;-1.04;83.38
14295;BME280;7231;59.370;18.016;2023-02-23T02:59:08;101277.63;;;-1.06;83.80
14295;BME280;7231;59.370;18.016;2023-02-23T03:01:56;101348.16;;;-0.61;83.97
14295;BME280;7231;59.370;18.016;2023-02-23T03:04:42;101344.13;;;-0.58;84.14
14295;BME280;7231;59.370;18.016;2023-02-23T03:07:30;101315.22;;;-0.76;84.40
14295;BME280;7231;59.370;18.016;2023-02-23T03:10:23;101340.91;;;-0.55;84.70
14295;BME280;7231;59.370;18.016;2023-02-23T03:13:17;101331.50;;;-0.55;84.86
14295;BME280;7231;59.370;18.016;2023-02-23T03:16:18;101336.78;;;-0.53;85.17
14295;BME280;7231;59.370;18.016;2023-02-23T03:19:14;101316.09;;;-0.65;85.39
14295;BME280;7231;59.370;18.016;2023-02-23T03:22:06;101333.31;;;-0.54;85.38
14295;BME280;7231;59.370;18.016;2023-02-23T03:24:58;101331.50;;;-0.55;85.63
14295;BME280;7231;59.370;18.016;2023-02-23T03:27:49;101324.78;;;-0.53;86.10
14295;BME280;7231;59.370;18.016;2023-02-23T03:30:45;101320.53;;;-0.52;86.10
14295;BME280;7231;59.370;18.016;2023-02-23T03:33:37;101315.41;;;-0.52;86.21
14295;BME280;7231;59.370;18.016;2023-02-23T03:36:26;101311.91;;;-0.53;86.20
14295;BME280;7231;59.370;18.016;2023-02-23T03:39:18;101306.78;;;-0.53;86.94
14295;BME280;7231;59.370;18.016;2023-02-23T03:42:10;101279.81;;;-0.68;87.35
14295;BME280;7231;59.370;18.016;2023-02-23T03:45:02;101304.72;;;-0.57;88.25
14295;BME280;7231;59.370;18.016;2023-02-23T03:47:49;101304.72;;;-0.57;88.44
14295;BME280;7231;59.370;18.016;2023-02-23T03:50:40;101281.84;;;-0.64;88.17
14295;BME280;7231;59.370;18.016;2023-02-23T03:53:31;101287.19;;;-0.51;88.62
14295;BME280;7231;59.370;18.016;2023-02-23T03:56:19;101294.78;;;-0.52;88.85
14295;BME280;7231;59.370;18.016;2023-02-23T03:59:09;101290.78;;;-0.49;88.99
14295;BME280;7231;59.370;18.016;2023-02-23T04:01:58;101192.94;;;-1.03;88.67
14295;BME280;7231;59.370;18.016;2023-02-23T04:04:45;101269.56;;;-0.56;89.06
14295;BME280;7231;59.370;18.016;2023-02-23T04:07:33;101280.97;;;-0.43;88.95
14295;BME280;7231;59.370;18.016;2023-02-23T04:10:19;101275.03;;;-0.42;88.99
14295;BME280;7231;59.370;18.016;2023-02-23T04:13:10;101262.16;;;-0.42;89.20
14295;BME280;7231;59.370;18.016;2023-02-23T04:15:47;101198.22;;;-0.79;89.37
14295;BME280;7231;59.370;18.016;2023-02-23T04:18:21;101265.75;;;-0.40;89.63
14295;BME280;7231;59.370;18.016;2023-02-23T04:20:50;101241.59;;;-0.52;89.49
14295;BME280;7231;59.370;18.016;2023-02-23T04:23:18;101263.63;;;-0.34;89.99
14295;BME280;7231;59.370;18.016;2023-02-23T04:25:48;101243.47;;;-0.39;89.76
14295;BME280;7231;59.370;18.016;2023-02-23T04:28:16;101246.50;;;-0.33;90.33
14295;BME280;7231;59.370;18.016;2023-02-23T04:30:44;101253.34;;;-0.34;90.34
14295;BME280;7231;59.370;18.016;2023-02-23T04:33:12;101247.53;;;-0.31;90.65
14295;BME280;7231;59.370;18.016;2023-02-23T04:35:41;101245.19;;;-0.28;90.68
14295;BME280;7231;59.370;18.016;2023-02-23T04:38:09;101253.16;;;-0.25;90.63
14295;BME280;7231;59.370;18.016;2023-02-23T04:40:37;101237.09;;;-0.32;90.96
14295;BME280;7231;59.370;18.016;2023-02-23T04:43:05;101242.59;;;-0.28;90.85
14295;BME280;7231;59.370;18.016;2023-02-23T04:45:33;101234.75;;;-0.29;90.87
14295;BME280;7231;59.370;18.016;2023-02-23T04:48:02;101234.63;;;-0.31;91.52
14295;BME280;7231;59.370;18.016;2023-02-23T04:50:30;101208.81;;;-0.43;92.10
14295;BME280;7231;59.370;18.016;2023-02-23T04:52:59;101224.34;;;-0.31;92.52
14295;BME280;7231;59.370;18.016;2023-02-23T04:55:27;101229.38;;;-0.32;92.50
14295;BME280;7231;59.370;18.016;2023-02-23T04:57:56;101216.47;;;-0.32;92.75
14295;BME280;7231;59.370;18.016;2023-02-23T05:00:26;101213.91;;;-0.32;93.10
14295;BME280;7231;59.370;18.016;2023-02-23T05:02:55;101205.28;;;-0.33;92.99
14295;BME280;7231;59.370;18.016;2023-02-23T05:05:23;101209.53;;;-0.34;93.05
14295;BME280;7231;59.370;18.016;2023-02-23T05:07:52;101174.09;;;-0.48;92.96
14295;BME280;7231;59.370;18.016;2023-02-23T05:10:22;101184.38;;;-0.48;93.55
14295;BME280;7231;59.370;18.016;2023-02-23T05:12:50;101182.47;;;-0.50;93.47
14295;BME280;7231;59.370;18.016;2023-02-23T05:15:18;101198.22;;;-0.36;93.23
14295;BME280;7231;59.370;18.016;2023-02-23T05:17:45;101200.78;;;-0.36;93.73
14295;BME280;7231;59.370;18.016;2023-02-23T05:20:14;101148.16;;;-0.61;93.53
14295;BME280;7231;59.370;18.016;2023-02-23T05:22:42;101162.00;;;-0.49;93.42
14295;BME280;7231;59.370;18.016;2023-02-23T05:25:10;101189.94;;;-0.31;93.68
14295;BME280;7231;59.370;18.016;2023-02-23T05:27:39;101175.81;;;-0.37;93.44
14295;BME280;7231;59.370;18.016;2023-02-23T05:30:08;101194.31;;;-0.30;93.88
14295;BME280;7231;59.370;18.016;2023-02-23T05:32:37;101165.03;;;-0.43;93.76
14295;BME280;7231;59.370;18.016;2023-02-23T05:35:05;101163.34;;;-0.42;94.06
14295;BME280;7231;59.370;18.016;2023-02-23T05:37:34;101174.47;;;-0.31;94.24
14295;BME280;7231;59.370;18.016;2023-02-23T05:40:02;101130.19;;;-0.49;94.17
14295;BME280;7231;59.370;18.016;2023-02-23T05:42:31;101157.47;;;-0.29;94.27
14295;BME280;7231;59.370;18.016;2023-02-23T05:45:00;101139.41;;;-0.41;94.12
14295;BME280;7231;59.370;18.016;2023-02-23T05:47:30;101155.66;;;-0.30;94.61
14295;BME280;7231;59.370;18.016;2023-02-23T05:50:01;101153.09;;;-0.30;94.64
14295;BME280;7231;59.370;18.016;2023-02-23T05:52:28;101143.56;;;-0.31;94.52
14295;BME280;7231;59.370;18.016;2023-02-23T05:54:56;101147.94;;;-0.30;94.72
14295;BME280;7231;59.370;18.016;2023-02-23T05:57:25;101111.59;;;-0.45;94.89
14295;BME280;7231;59.370;18.016;2023-02-23T05:59:53;101135.06;;;-0.30;94.79
14295;BME280;7231;59.370;18.016;2023-02-23T06:02:22;101125.75;;;-0.28;95.09
14295;BME280;7231;59.370;18.016;2023-02-23T06:04:50;101118.81;;;-0.29;94.87
14295;BME280;7231;59.370;18.016;2023-02-23T06:07:18;101124.97;;;-0.27;94.88
14295;BME280;7231;59.370;18.016;2023-02-23T06:09:46;101115.44;;;-0.28;95.20
14295;BME280;7231;59.370;18.016;2023-02-23T06:12:14;101108.63;;;-0.28;95.52
14295;BME280;7231;59.370;18.016;2023-02-23T06:14:42;101109.53;;;-0.27;95.53
14295;BME280;7231;59.370;18.016;2023-02-23T06:17:10;101083.63;;;-0.41;96.04
14295;BME280;7231;59.370;18.016;2023-02-23T06:19:40;101101.13;;;-0.25;96.10
14295;BME280;7231;59.370;18.016;2023-02-23T06:22:08;101099.78;;;-0.31;95.65
14295;BME280;7231;59.370;18.016;2023-02-23T06:24:35;101102.69;;;-0.27;95.89
14295;BME280;7231;59.370;18.016;2023-02-23T06:27:04;101094.19;;;-0.26;96.59
14295;BME280;7231;59.370;18.016;2023-02-23T06:29:32;101057.75;;;-0.42;96.35
14295;BME280;7231;59.370;18.016;2023-02-23T06:32:00;101091.03;;;-0.22;96.35
14295;BME280;7231;59.370;18.016;2023-02-23T06:34:28;101093.63;;;-0.22;96.36
14295;BME280;7231;59.370;18.016;2023-02-23T06:36:57;101086.78;;;-0.21;97.01
14295;BME280;7231;59.370;18.016;2023-02-23T06:39:25;101024.91;;;-0.56;96.57
14295;BME280;7231;59.370;18.016;2023-02-23T06:41:53;101082.31;;;-0.24;96.98
14295;BME280;7231;59.370;18.016;2023-02-23T06:44:21;101083.31;;;-0.22;97.25
14295;BME280;7231;59.370;18.016;2023-02-23T06:46:49;101077.25;;;-0.22;97.35
14295;BME280;7231;59.370;18.016;2023-02-23T06:49:19;101083.44;;;-0.20;97.64
14295;BME280;7231;59.370;18.016;2023-02-23T06:51:47;101070.44;;;-0.22;97.35
14295;BME280;7231;59.370;18.016;2023-02-23T06:54:16;101076.16;;;-0.14;97.05
14295;BME280;7231;59.370;18.016;2023-02-23T06:56:44;101064.94;;;-0.15;97.48
14295;BME280;7231;59.370;18.016;2023-02-23T06:59:12;101064.28;;;-0.12;97.40
14295;BME280;7231;59.370;18.016;2023-02-23T07:01:40;101056.53;;;-0.12;97.90
14295;BME280;7231;59.370;18.016;2023-02-23T07:04:10;101016.19;;;-0.35;97.62
14295;BME280;7231;59.370;18.016;2023-02-23T07:06:42;101059.25;;;-0.11;97.67
14295;BME280;7231;59.370;18.016;2023-02-23T07:09:09;101056.88;;;-0.08;97.80
14295;BME280;7231;59.370;18.016;2023-02-23T07:11:39;101058.78;;;-0.05;97.72
14295;BME280;7231;59.370;18.016;2023-02-23T07:14:09;101050.28;;;-0.04;97.54
14295;BME280;7231;59.370;18.016;2023-02-23T07:16:47;101034.38;;;-0.10;97.83
14295;BME280;7231;59.370;18.016;2023-02-23T07:19:14;101017.56;;;-0.17;97.60
14295;BME280;7231;59.370;18.016;2023-02-23T07:21:42;101036.81;;;0.00;97.55
14295;BME280;7231;59.370;18.016;2023-02-23T07:24:10;101036.00;;;0.01;98.10
14295;BME280;7231;59.370;18.016;2023-02-23T07:26:40;101044.75;;;0.03;98.23
14295;BME280;7231;59.370;18.016;2023-02-23T07:29:10;101014.88;;;-0.07;98.20
14295;BME280;7231;59.370;18.016;2023-02-23T07:31:39;101031.19;;;0.06;98.07
14295;BME280;7231;59.370;18.016;2023-02-23T07:34:08;101009.34;;;0.00;98.47
14295;BME280;7231;59.370;18.016;2023-02-23T07:36:36;101018.97;;;0.03;98.44
14295;BME280;7231;59.370;18.016;2023-02-23T07:39:04;100906.56;;;-0.55;98.25
14295;BME280;7231;59.370;18.016;2023-02-23T07:41:32;101016.16;;;0.12;98.43
14295;BME280;7231;59.370;18.016;2023-02-23T07:44:01;101010.31;;;0.14;98.66
14295;BME280;7231;59.370;18.016;2023-02-23T07:46:29;101000.38;;;0.07;98.58
14295;BME280;7231;59.370;18.016;2023-02-23T07:48:57;101015.72;;;0.17;99.14
14295;BME280;7231;59.370;18.016;2023-02-23T07:51:25;100854.50;;;-0.74;98.96
14295;BME280;7231;59.370;18.016;2023-02-23T07:53:53;101010.75;;;0.20;99.27
14295;BME280;7231;59.370;18.016;2023-02-23T07:56:21;101013.69;;;0.25;99.40
14295;BME280;7231;59.370;18.016;2023-02-23T07:58:49;101006.06;;;0.26;99.04
14295;BME280;7231;59.370;18.016;2023-02-23T08:01:19;100928.38;;;-0.15;99.30
14295;BME280;7231;59.370;18.016;2023-02-23T08:03:47;100958.91;;;0.04;99.10
14295;BME280;7231;59.370;18.016;2023-02-23T08:06:16;100814.88;;;-0.76;99.08
14295;BME280;7231;59.370;18.016;2023-02-23T08:08:44;100998.19;;;0.37;99.62
14295;BME280;7231;59.370;18.016;2023-02-23T08:11:12;100991.44;;;0.39;99.75
14295;BME280;7231;59.370;18.016;2023-02-23T08:13:41;100985.50;;;0.40;99.57
14295;BME280;7231;59.370;18.016;2023-02-23T08:16:09;100991.66;;;0.42;99.80
14295;BME280;7231;59.370;18.016;2023-02-23T08:18:39;100977.19;;;0.44;100.00
14295;BME280;7231;59.370;18.016;2023-02-23T08:21:07;100975.28;;;0.41;99.54
14295;BME280;7231;59.370;18.016;2023-02-23T08:23:35;100922.00;;;0.17;100.00
14295;BME280;7231;59.370;18.016;2023-02-23T08:26:03;100929.84;;;0.18;100.00
14295;BME280;7231;59.370;18.016;2023-02-23T08:28:31;100972.34;;;0.48;100.00
14295;BME280;7231;59.370;18.016;2023-02-23T08:30:59;100968.09;;;0.49;100.00
14295;BME280;7231;59.370;18.016;2023-02-23T08:33:27;100958.09;;;0.53;100.00
14295;BME280;7231;59.370;18.016;2023-02-23T08:35:58;100958.19;;;0.55;100.00
14295;BME280;7231;59.370;18.016;2023-02-23T08:38:28;100957.50;;;0.57;100.00
14295;BME280;7231;59.370;18.016;2023-02-23T08:40:59;100952.47;;;0.59;100.00
14295;BME280;7231;59.370;18.016;2023-02-23T08:43:27;100927.22;;;0.55;100.00
14295;BME280;7231;59.370;18.016;2023-02-23T08:45:55;100935.41;;;0.61;100.00
14295;BME280;7231;59.370;18.016;2023-02-23T08:48:23;100937.13;;;0.74;100.00
14295;BME280;7231;59.370;18.016;2023-02-23T08:50:55;100916.75;;;0.65;100.00
14295;BME280;7231;59.370;18.016;2023-02-23T08:53:28;100916.88;;;0.67;100.00
14295;BME280;7231;59.370;18.016;2023-02-23T08:55:57;100932.97;;;0.76;100.00
14295;BME280;7231;59.370;18.016;2023-02-23T08:58:27;100928.81;;;0.78;100.00
14295;BME280;7231;59.370;18.016;2023-02-23T09:00:56;100926.34;;;0.79;100.00
14295;BME280;7231;59.370;18.016;2023-02-23T09:03:25;100851.28;;;0.38;100.00
14295;BME280;7231;59.370;18.016;2023-02-23T09:05:54;100926.53;;;0.82;100.00
14295;BME280;7231;59.370;18.016;2023-02-23T09:08:23;100923.97;;;0.82;100.00
14295;BME280;7231;59.370;18.016;2023-02-23T09:10:52;100853.59;;;0.47;100.00
14295;BME280;7231;59.370;18.016;2023-02-23T09:13:20;100920.00;;;0.87;100.00
14295;BME280;7231;59.370;18.016;2023-02-23T09:15:48;100886.09;;;0.70;100.00
14295;BME280;7231;59.370;18.016;2023-02-23T09:18:16;100907.19;;;0.89;100.00
14295;BME280;7231;59.370;18.016;2023-02-23T09:20:44;100905.72;;;0.92;100.00
14295;BME280;7231;59.370;18.016;2023-02-23T09:23:12;100898.09;;;0.94;100.00
14295;BME280;7231;59.370;18.016;2023-02-23T09:25:40;100898.97;;;0.94;100.00
14295;BME280;7231;59.370;18.016;2023-02-23T09:28:12;100900.75;;;0.95;100.00
14295;BME280;7231;59.370;18.016;2023-02-23T09:30:41;100883.06;;;0.88;100.00
14295;BME280;7231;59.370;18.016;2023-02-23T09:33:10;100895.00;;;1.00;100.00
14295;BME280;7231;59.370;18.016;2023-02-23T09:35:39;100888.06;;;0.98;100.00
14295;BME280;7231;59.370;18.016;2023-02-23T09:38:08;100858.75;;;0.85;100.00
14295;BME280;7231;59.370;18.016;2023-02-23T09:40:44;100886.09;;;1.08;100.00
14295;BME280;7231;59.370;18.016;2023-02-23T09:43:17;100869.81;;;1.09;100.00
14295;BME280;7231;59.370;18.016;2023-02-23T09:45:53;100861.25;;;1.10;100.00
14295;BME280;7231;59.370;18.016;2023-02-23T09:48:27;100875.56;;;1.18;100.00
14295;BME280;7231;59.370;18.016;2023-02-23T09:50:56;100872.09;;;1.17;100.00
14295;BME280;7231;59.370;18.016;2023-02-23T09:53:35;100867.13;;;1.20;100.00
14295;BME280;7231;59.370;18.016;2023-02-23T09:56:10;100841.59;;;1.12;100.00
14295;BME280;7231;59.370;18.016;2023-02-23T09:58:41;100858.09;;;1.27;100.00
14295;BME280;7231;59.370;18.016;2023-02-23T10:01:26;100859.28;;;1.32;100.00
14295;BME280;7231;59.370;18.016;2023-02-23T10:04:02;100860.19;;;1.33;100.00
14295;BME280;7231;59.370;18.016;2023-02-23T10:06:33;100844.59;;;1.18;100.00
14295;BME280;7231;59.370;18.016;2023-02-23T10:09:09;100848.84;;;1.44;100.00
14295;BME280;7231;59.370;18.016;2023-02-23T10:11:45;100828.28;;;1.45;100.00
14295;BME280;7231;59.370;18.016;2023-02-23T10:14:30;100851.31;;;1.55;100.00
14295;BME280;7231;59.370;18.016;2023-02-23T10:17:12;100788.25;;;1.25;100.00
14295;BME280;7231;59.370;18.016;2023-02-23T10:19:49;100836.03;;;1.58;100.00
14295;BME280;7231;59.370;18.016;2023-02-23T10:22:20;100836.03;;;1.58;100.00
14295;BME280;7231;59.370;18.016;2023-02-23T10:24:51;100824.78;;;1.58;100.00
14295;BME280;7231;59.370;18.016;2023-02-23T10:27:36;100832.53;;;1.58;100.00
14295;BME280;7231;59.370;18.016;2023-02-23T10:30:15;100801.66;;;1.33;100.00
14295;BME280;7231;59.370;18.016;2023-02-23T10:32:49;100821.34;;;1.44;100.00
14295;BME280;7231;59.370;18.016;2023-02-23T10:35:20;100814.47;;;1.45;100.00
14295;BME280;7231;59.370;18.016;2023-02-23T10:37:49;100770.59;;;1.18;100.00
14295;BME280;7231;59.370;18.016;2023-02-23T10:40:20;100806.44;;;1.40;100.00
14295;BME280;7231;59.370;18.016;2023-02-23T10:42:49;100806.13;;;1.36;100.00
14295;BME280;7231;59.370;18.016;2023-02-23T10:45:21;100799.38;;;1.38;100.00
14295;BME280;7231;59.370;18.016;2023-02-23T10:47:54;100788.44;;;1.42;100.00
14295;BME280;7231;59.370;18.016;2023-02-23T10:50:24;100796.28;;;1.43;100.00
14295;BME280;7231;59.370;18.016;2023-02-23T10:52:57;100782.66;;;1.46;100.00
14295;BME280;7231;59.370;18.016;2023-02-23T10:55:27;100713.91;;;1.07;100.00
14295;BME280;7231;59.370;18.016;2023-02-23T10:58:09;100769.19;;;1.37;100.00
14295;BME280;7231;59.370;18.016;2023-02-23T11:00:55;100759.44;;;1.33;100.00
14295;BME280;7231;59.370;18.016;2023-02-23T11:03:27;100779.59;;;1.38;100.00
14295;BME280;7231;59.370;18.016;2023-02-23T11:05:56;100779.31;;;1.34;100.00
14295;BME280;7231;59.370;18.016;2023-02-23T11:08:27;100770.66;;;1.33;100.00
14295;BME280;7231;59.370;18.016;2023-02-23T11:10:59;100776.03;;;1.36;100.00
14295;BME280;7231;59.370;18.016;2023-02-23T11:13:30;100793.41;;;1.39;100.00
14295;BME280;7231;59.370;18.016;2023-02-23T11:16:04;100759.84;;;1.39;100.00
14295;BME280;7231;59.370;18.016;2023-02-23T11:18:36;100751.78;;;1.34;100.00
14295;BME280;7231;59.370;18.016;2023-02-23T11:21:10;100733.72;;;1.21;100.00
14295;BME280;7231;59.370;18.016;2023-02-23T11:23:39;100687.88;;;1.04;100.00
14295;BME280;7231;59.370;18.016;2023-02-23T11:26:21;100678.56;;;0.92;100.00
14295;BME280;7231;59.370;18.016;2023-02-23T11:28:55;100726.78;;;1.20;100.00
14295;BME280;7231;59.370;18.016;2023-02-23T11:31:30;100733.63;;;1.33;100.00
14295;BME280;7231;59.370;18.016;2023-02-23T11:34:02;100736.28;;;1.34;100.00
14295;BME280;7231;59.370;18.016;2023-02-23T11:36:32;100738.19;;;1.37;100.00
14295;BME280;7231;59.370;18.016;2023-02-23T11:39:06;100553.91;;;0.39;100.00
14295;BME280;7231;59.370;18.016;2023-02-23T11:41:34;100733.81;;;1.36;100.00
14295;BME280;7231;59.370;18.016;2023-02-23T11:44:03;100720.78;;;1.34;100.00
14295;BME280;7231;59.370;18.016;2023-02-23T11:46:36;100697.06;;;1.26;100.00
14295;BME280;7231;59.370;18.016;2023-02-23T11:49:06;100699.94;;;1.31;100.00
14295;BME280;7231;59.370;18.016;2023-02-23T11:51:39;100711.41;;;1.49;100.00
14295;BME280;7231;59.370;18.016;2023-02-23T11:54:19;100696.94;;;1.38;100.00
14295;BME280;7231;59.370;18.016;2023-02-23T11:56:49;100628.31;;;1.01;100.00
14295;BME280;7231;59.370;18.016;2023-02-23T11:59:26;100707.47;;;1.41;100.00
14295;BME280;7231;59.370;18.016;2023-02-23T12:02:04;100673.72;;;1.25;100.00
14295;BME280;7231;59.370;18.016;2023-02-23T12:04:35;100652.31;;;1.13;100.00
14295;BME280;7231;59.370;18.016;2023-02-23T12:07:28;100680.88;;;1.29;100.00
14295;BME280;7231;59.370;18.016;2023-02-23T12:10:06;100687.63;;;1.27;100.00
14295;BME280;7231;59.370;18.016;2023-02-23T12:12:47;100680.06;;;1.30;100.00
14295;BME280;7231;59.370;18.016;2023-02-23T12:15:23;100678.28;;;1.29;100.00
14295;BME280;7231;59.370;18.016;2023-02-23T12:17:58;100680.69;;;1.26;100.00
14295;BME280;7231;59.370;18.016;2023-02-23T12:20:33;100672.84;;;1.24;100.00
14295;BME280;7231;59.370;18.016;2023-02-23T12:23:07;100651.94;;;1.07;100.00
14295;BME280;7231;59.370;18.016;2023-02-23T12:25:39;100671.47;;;1.16;100.00
14295;BME280;7231;59.370;18.016;2023-02-23T12:28:12;100659.75;;;1.21;100.00
14295;BME280;7231;59.370;18.016;2023-02-23T12:30:47;100502.81;;;0.33;100.00
14295;BME280;7231;59.370;18.016;2023-02-23T12:33:21;100642.56;;;1.22;100.00
14295;BME280;7231;59.370;18.016;2023-02-23T12:35:59;100624.09;;;1.16;100.00
14295;BME280;7231;59.370;18.016;2023-02-23T12:38:35;100653.44;;;1.31;100.00
14295;BME280;7231;59.370;18.016;2023-02-23T12:41:11;100638.97;;;1.20;100.00
14295;BME280;7231;59.370;18.016;2023-02-23T12:43:43;100657.16;;;1.21;100.00
14295;BME280;7231;59.370;18.016;2023-02-23T12:46:17;100652.59;;;1.17;100.00
14295;BME280;7231;59.370;18.016;2023-02-23T12:48:55;100640.88;;;1.22;100.00
14295;BME280;7231;59.370;18.016;2023-02-23T12:51:31;100644.06;;;1.18;100.00
14295;BME280;7231;59.370;18.016;2023-02-23T12:54:01;100610.94;;;0.98;100.00
14295;BME280;7231;59.370;18.016;2023-02-23T12:56:37;100578.34;;;0.72;100.00
14295;BME280;7231;59.370;18.016;2023-02-23T12:59:21;100610.84;;;0.96;100.00
14295;BME280;7231;59.370;18.016;2023-02-23T13:01:58;100628.19;;;1.12;100.00
14295;BME280;7231;59.370;18.016;2023-02-23T13:04:49;100619.72;;;1.15;100.00
14295;BME280;7231;59.370;18.016;2023-02-23T13:07:28;100567.59;;;0.79;100.00
14295;BME280;7231;59.370;18.016;2023-02-23T13:10:17;100622.53;;;1.05;100.00
14295;BME280;7231;59.370;18.016;2023-02-23T13:12:54;100581.78;;;0.86;100.00
14295;BME280;7231;59.370;18.016;2023-02-23T13:15:30;100609.25;;;0.98;100.00
14295;BME280;7231;59.370;18.016;2023-02-23T13:18:09;100596.72;;;1.05;100.00
14295;BME280;7231;59.370;18.016;2023-02-23T13:20:42;100605.56;;;1.08;100.00
14295;BME280;7231;59.370;18.016;2023-02-23T13:23:21;100595.50;;;1.13;100.00
14295;BME280;7231;59.370;18.016;2023-02-23T13:26:01;100594.63;;;1.12;100.00
14295;BME280;7231;59.370;18.016;2023-02-23T13:28:41;100588.19;;;1.06;100.00